Time;durP1;ratioP1;P1;durP2;ratioP2;P2;SDS_P1;SDS_P2;PMS_P1;PMS_P2;Temp;Humidity;BMP_temperature;BMP_pressure;BME280_temperature;BME280_humidity;BME280_pressure;Samples;Min_cycle;Max_cycle;Signal;HPM_P1;HPM_P2
2022/02/23 00:02:25;;;;;;;36.55;24.92;;;;;;;6.68;100.00;99660.75;1812797;78;21296;-78
2022/02/23 00:05:30;;;;;;;50.60;30.20;;;;;;;6.67;100.00;99663.11;1812956;79;21662;-78
2022/02/23 00:08:36;;;;;;;48.60;30.10;;;;;;;6.65;100.00;99662.44;1813080;79;21209;-78
2022/02/23 00:11:42;;;;;;;56.13;32.78;;;;;;;6.67;100.00;99663.11;1813014;79;21296;-78
2022/02/23 00:14:48;;;;;;;57.45;33.35;;;;;;;6.71;100.00;99673.14;1811509;78;21177;-78
2022/02/23 00:17:55;;;;;;;58.70;35.17;;;;;;;6.72;100.00;99677.55;1791437;80;21491;-78
2022/02/23 00:21:01;;;;;;;64.82;37.55;;;;;;;6.74;100.00;99679.62;1791319;80;21288;-78
2022/02/23 00:24:06;;;;;;;73.83;41.30;;;;;;;6.74;100.00;99684.54;1791120;80;21213;-78
2022/02/23 00:27:12;;;;;;;86.30;47.10;;;;;;;6.76;100.00;99687.08;1789516;80;21327;-78
2022/02/23 00:30:18;;;;;;;85.20;46.15;;;;;;;6.76;100.00;99693.36;1792768;78;21362;-78
2022/02/23 00:33:25;;;;;;;76.97;42.62;;;;;;;6.73;100.00;99686.92;1814752;79;21279;-77
2022/02/23 00:36:30;;;;;;;83.80;47.55;;;;;;;6.68;100.00;99681.14;1814137;79;21344;-78
2022/02/23 00:39:36;;;;;;;96.25;48.05;;;;;;;6.63;100.00;99678.92;1814425;79;21216;-78
2022/02/23 00:42:42;;;;;;;107.32;53.83;;;;;;;6.60;100.00;99673.80;1813124;79;21307;-78
2022/02/23 00:45:49;;;;;;;121.50;60.15;;;;;;;6.63;100.00;99683.48;1813032;79;21351;-78
2022/02/23 00:48:55;;;;;;;119.65;62.95;;;;;;;6.63;100.00;99689.79;1812961;79;21196;-78
2022/02/23 00:52:02;;;;;;;130.45;66.65;;;;;;;6.62;100.00;99681.78;1814464;79;21288;-78
2022/02/23 00:55:07;;;;;;;143.32;68.62;;;;;;;6.63;100.00;99684.36;1813713;79;21280;-78
2022/02/23 00:58:12;;;;;;;141.73;68.30;;;;;;;6.61;100.00;99684.16;1814060;79;21299;-78
2022/02/23 01:01:17;;;;;;;137.80;67.50;;;;;;;6.57;100.00;99693.15;1813471;79;21311;-78
2022/02/23 01:04:22;;;;;;;141.70;64.65;;;;;;;6.52;100.00;99688.72;1814434;79;21197;-78
2022/02/23 01:07:27;;;;;;;127.47;61.48;;;;;;;6.48;100.00;99685.14;1812761;79;21204;-78
2022/02/23 01:10:33;;;;;;;132.37;62.75;;;;;;;6.44;100.00;99681.05;1814308;79;21209;-78
2022/02/23 01:13:38;;;;;;;138.60;67.25;;;;;;;6.42;100.00;99701.59;1813069;79;21268;-78
2022/02/23 01:16:44;;;;;;;142.70;68.15;;;;;;;6.38;100.00;99713.80;1814624;79;21866;-78
2022/02/23 01:19:50;;;;;;;143.50;65.50;;;;;;;6.37;100.00;99714.31;1814572;79;21291;-78
2022/02/23 01:22:57;;;;;;;127.55;68.00;;;;;;;6.36;100.00;99715.34;1812801;79;21199;-78
2022/02/23 01:26:03;;;;;;;109.27;59.33;;;;;;;6.31;100.00;99719.05;1812771;79;21256;-78
2022/02/23 01:29:08;;;;;;;114.62;58.40;;;;;;;6.26;100.00;99715.98;1817166;79;21169;-78
2022/02/23 01:32:14;;;;;;;115.08;60.40;;;;;;;6.23;100.00;99722.23;1816929;79;21296;-78
2022/02/23 01:35:19;;;;;;;100.20;57.75;;;;;;;6.20;100.00;99723.40;1815484;79;21891;-78
2022/02/23 01:38:27;;;;;;;98.27;52.88;;;;;;;6.18;100.00;99721.88;1817257;79;21315;-78
2022/02/23 01:41:35;;;;;;;81.70;45.55;;;;;;;6.19;100.00;99728.48;1817496;79;21854;-78
2022/02/23 01:44:40;;;;;;;81.00;44.00;;;;;;;6.21;100.00;99721.53;1816981;79;21208;-78
2022/02/23 01:47:46;;;;;;;73.87;41.60;;;;;;;6.22;100.00;99713.23;1817197;79;21149;-78
2022/02/23 01:50:51;;;;;;;71.70;40.95;;;;;;;6.25;100.00;99717.48;1817831;79;21189;-78
2022/02/23 01:53:56;;;;;;;66.25;37.17;;;;;;;6.26;100.00;99720.56;1817001;79;21280;-78
2022/02/23 01:57:01;;;;;;;53.08;31.10;;;;;;;6.24;100.00;99730.21;1815773;79;21181;-78
2022/02/23 02:00:06;;;;;;;49.90;30.82;;;;;;;6.20;100.00;99735.62;1817113;79;21807;-78
2022/02/23 02:03:12;;;;;;;45.60;28.20;;;;;;;6.14;100.00;99738.98;1817090;79;21287;-77
2022/02/23 02:06:17;;;;;;;40.25;26.02;;;;;;;6.10;100.00;99743.03;1816096;79;21862;-77
2022/02/23 02:09:24;;;;;;;42.13;26.40;;;;;;;6.04;100.00;99739.11;1815465;79;21180;-77
2022/02/23 02:12:30;;;;;;;41.18;24.30;;;;;;;6.02;100.00;99734.84;1817972;79;21252;-77
2022/02/23 02:15:35;;;;;;;40.23;26.12;;;;;;;5.99;100.00;99750.11;1817134;79;21288;-77
2022/02/23 02:18:41;;;;;;;39.13;24.90;;;;;;;5.96;100.00;99740.41;1817157;79;21284;-78
2022/02/23 02:22:13;;;;;;;38.80;24.60;;;;;;;5.95;100.00;99744.14;1816734;79;21862;-78
2022/02/23 02:25:19;;;;;;;36.95;23.42;;;;;;;5.94;100.00;99744.31;1816926;79;21173;-77
2022/02/23 02:28:23;;;;;;;39.58;25.12;;;;;;;5.91;100.00;99752.22;1814890;79;21842;-77
2022/02/23 02:31:29;;;;;;;38.13;23.38;;;;;;;5.89;100.00;99759.19;1811180;79;21343;-77
2022/02/23 02:34:35;;;;;;;48.28;24.90;;;;;;;5.87;100.00;99765.77;1811306;79;21220;-77
2022/02/23 02:37:41;;;;;;;41.75;23.75;;;;;;;5.82;100.00;99766.24;1809818;79;21360;-77
2022/02/23 02:40:48;;;;;;;41.02;24.75;;;;;;;5.79;100.00;99774.72;1811311;79;21890;-77
2022/02/23 02:43:53;;;;;;;43.00;25.08;;;;;;;5.74;100.00;99773.00;1811191;79;21347;-77
2022/02/23 02:46:59;;;;;;;40.60;24.45;;;;;;;5.68;100.00;99772.25;1810416;79;21324;-77
2022/02/23 02:50:04;;;;;;;38.63;23.47;;;;;;;5.61;100.00;99769.33;1811389;79;21839;-77
2022/02/23 02:53:09;;;;;;;42.30;25.00;;;;;;;5.57;100.00;99769.80;1810544;79;21208;-77
2022/02/23 02:56:15;;;;;;;39.13;23.87;;;;;;;5.54;100.00;99772.81;1811018;79;21815;-77
2022/02/23 02:59:21;;;;;;;35.73;23.90;;;;;;;5.54;100.00;99766.88;1809715;79;21268;-77
2022/02/23 03:02:25;;;;;;;40.60;24.30;;;;;;;5.53;100.00;99776.55;1809911;79;21866;-78
2022/02/23 03:05:33;;;;;;;45.52;24.07;;;;;;;5.53;100.00;99781.97;1811434;79;21828;-77
2022/02/23 03:08:39;;;;;;;39.90;24.82;;;;;;;5.52;100.00;99785.70;1810445;79;21243;-78
2022/02/23 03:11:45;;;;;;;38.15;23.47;;;;;;;5.51;100.00;99790.27;1811297;79;21755;-78
2022/02/23 03:14:51;;;;;;;38.48;23.77;;;;;;;5.49;100.00;99799.56;1811378;79;21280;-78
2022/02/23 03:17:58;;;;;;;42.05;23.25;;;;;;;5.46;100.00;99795.80;1810171;79;21149;-78
2022/02/23 03:21:04;;;;;;;37.65;23.00;;;;;;;5.40;99.67;99798.63;1811284;79;21276;-78
2022/02/23 03:24:10;;;;;;;37.75;22.62;;;;;;;5.33;99.47;99788.92;1810085;79;21577;-78
2022/02/23 03:27:15;;;;;;;41.18;24.67;;;;;;;5.31;99.57;99788.20;1810738;79;21355;-78
2022/02/23 03:30:20;;;;;;;38.75;22.02;;;;;;;5.29;99.41;99792.95;1811145;78;21882;-78
2022/02/23 03:33:25;;;;;;;39.53;22.70;;;;;;;5.27;98.89;99804.47;1801726;79;22290;-78
2022/02/23 03:36:33;;;;;;;45.50;22.77;;;;;;;5.25;98.43;99809.68;1785907;80;21924;-78
2022/02/23 03:39:39;;;;;;;40.63;22.75;;;;;;;5.23;98.02;99805.78;1784644;80;21421;-78
2022/02/23 03:42:45;;;;;;;38.23;21.42;;;;;;;5.20;97.40;99804.72;1785772;80;21195;-78
2022/02/23 03:45:52;;;;;;;37.65;21.95;;;;;;;5.20;96.70;99799.30;1784240;80;21195;-78
2022/02/23 03:48:56;;;;;;;32.45;19.57;;;;;;;5.16;95.90;99796.54;1784201;79;21829;-78
2022/02/23 03:52:02;;;;;;;40.10;21.80;;;;;;;5.14;95.50;99798.56;1785620;80;21172;-78
2022/02/23 03:55:10;;;;;;;37.13;20.77;;;;;;;5.13;95.03;99806.36;1784220;80;21338;-78
2022/02/23 03:58:16;;;;;;;38.17;22.13;;;;;;;5.13;94.81;99808.56;1784680;80;21242;-78
2022/02/23 04:01:21;;;;;;;40.20;21.50;;;;;;;5.08;94.33;99813.59;1786789;80;21140;-78
2022/02/23 04:04:27;;;;;;;37.15;20.70;;;;;;;5.05;94.40;99810.33;1785963;79;21290;-78
2022/02/23 04:07:34;;;;;;;42.27;21.80;;;;;;;5.02;94.41;99807.41;1784267;80;21223;-77
2022/02/23 04:10:40;;;;;;;36.68;22.35;;;;;;;5.00;94.45;99814.00;1785593;80;21293;-77
2022/02/23 04:13:45;;;;;;;36.00;21.70;;;;;;;4.96;94.43;99813.45;1785973;80;21298;-78
2022/02/23 04:16:51;;;;;;;36.80;23.02;;;;;;;4.93;94.45;99823.23;1784078;80;21728;-77
2022/02/23 04:19:58;;;;;;;41.35;23.05;;;;;;;4.90;94.46;99832.19;1816157;78;21174;-78
2022/02/23 04:23:03;;;;;;;36.88;22.85;;;;;;;4.87;94.63;99831.47;1817961;79;21781;-78
2022/02/23 04:26:09;;;;;;;33.88;22.82;;;;;;;4.86;94.70;99839.25;1734018;82;21733;-78
2022/02/23 04:29:14;;;;;;;35.88;21.27;;;;;;;4.84;94.47;99841.75;1815809;79;21328;-78
2022/02/23 04:32:21;;;;;;;36.48;21.15;;;;;;;4.80;94.17;99842.58;1788951;80;21327;-77
2022/02/23 04:35:27;;;;;;;32.80;21.45;;;;;;;4.77;93.68;99851.00;1711184;84;21395;-77
2022/02/23 04:38:33;;;;;;;32.38;19.95;;;;;;;4.69;93.14;99854.95;1740114;82;21300;-77
2022/02/23 04:41:38;;;;;;;39.73;20.95;;;;;;;4.65;92.80;99860.31;1713465;82;21249;-78
2022/02/23 04:44:43;;;;;;;34.27;18.87;;;;;;;4.59;92.61;99864.98;1713106;82;21375;-78
2022/02/23 04:47:48;;;;;;;31.42;20.12;;;;;;;4.53;92.60;99864.23;1715468;82;21315;-78
2022/02/23 04:50:54;;;;;;;36.20;20.12;;;;;;;4.45;92.35;99868.17;1734306;82;21358;-77
2022/02/23 04:53:59;;;;;;;35.15;19.30;;;;;;;4.35;91.75;99874.47;1740952;82;21312;-78
2022/02/23 04:57:04;;;;;;;28.38;18.37;;;;;;;4.23;91.31;99878.84;1741598;82;21351;-78
2022/02/23 05:00:09;;;;;;;30.80;19.10;;;;;;;4.07;91.01;99880.80;1728371;81;21800;-78
2022/02/23 05:03:14;;;;;;;32.80;20.57;;;;;;;3.91;90.95;99887.33;1731174;82;21183;-78
2022/02/23 05:06:20;;;;;;;35.78;20.15;;;;;;;3.73;91.15;99894.80;1743988;82;21837;-78
2022/02/23 05:09:26;;;;;;;37.35;19.80;;;;;;;3.58;91.53;99897.58;1729887;81;21853;-78
2022/02/23 05:12:34;;;;;;;29.42;18.40;;;;;;;3.46;91.93;99906.81;1734295;82;21187;-79
2022/02/23 05:15:43;;;;;;;31.93;18.12;;;;;;;3.33;92.26;99910.63;1733534;81;21194;-78
2022/02/23 05:18:49;;;;;;;31.45;19.27;;;;;;;3.23;92.42;99919.22;1737190;82;21194;-78
2022/02/23 05:21:54;;;;;;;36.23;18.23;;;;;;;3.15;92.70;99920.39;1738557;81;21323;-78
2022/02/23 05:24:59;;;;;;;32.08;16.50;;;;;;;3.09;92.92;99923.66;1736986;82;21343;-78
2022/02/23 05:28:04;;;;;;;27.50;16.35;;;;;;;3.05;93.19;99932.53;1736118;82;21346;-78
2022/02/23 05:31:09;;;;;;;25.88;15.28;;;;;;;3.04;93.37;99940.28;1742146;81;21256;-78
2022/02/23 05:34:15;;;;;;;26.30;15.95;;;;;;;3.06;93.43;99936.11;1752051;81;21309;-78
2022/02/23 05:37:21;;;;;;;27.45;17.52;;;;;;;3.08;93.37;99946.28;1750050;81;21863;-78
2022/02/23 05:40:26;;;;;;;25.95;15.78;;;;;;;3.11;93.00;99954.13;1749573;81;21292;-78
2022/02/23 05:43:33;;;;;;;27.37;15.43;;;;;;;3.14;92.71;99955.17;1747159;81;21169;-78
2022/02/23 05:46:40;;;;;;;27.40;15.38;;;;;;;3.15;92.08;99964.98;1735919;82;21185;-77
2022/02/23 05:49:46;;;;;;;30.20;16.62;;;;;;;3.18;91.85;99967.93;1737026;81;21322;-77
2022/02/23 05:52:52;;;;;;;27.87;15.65;;;;;;;3.21;92.02;99970.37;1729873;82;21224;-79
2022/02/23 05:56:00;;;;;;;25.15;14.45;;;;;;;3.23;91.91;99967.02;1760826;80;21177;-82
2022/02/23 05:59:05;;;;;;;24.15;14.10;;;;;;;3.25;91.34;99968.61;1756127;80;21355;-77
2022/02/23 06:02:10;;;;;;;26.97;14.20;;;;;;;3.29;91.12;99981.33;1736684;82;21295;-78
2022/02/23 06:05:17;;;;;;;27.65;13.30;;;;;;;3.32;90.79;99975.66;1755580;80;21293;-78
2022/02/23 06:08:23;;;;;;;22.32;12.33;;;;;;;3.35;90.56;99984.00;1756753;80;21335;-80
2022/02/23 06:11:28;;;;;;;33.85;13.75;;;;;;;3.36;90.07;99991.11;1731548;80;21189;-78
2022/02/23 06:14:34;;;;;;;22.07;13.45;;;;;;;3.38;89.78;100002.63;1754699;79;21259;-78
2022/02/23 06:17:41;;;;;;;25.60;13.72;;;;;;;3.38;89.26;100002.13;1737837;80;21933;-79
2022/02/23 06:20:47;;;;;;;19.87;12.78;;;;;;;3.38;88.75;100012.09;1729189;81;21226;-79
2022/02/23 06:23:56;;;;;;;28.20;13.43;;;;;;;3.36;88.44;100017.64;1740443;81;21319;-79
2022/02/23 06:27:01;;;;;;;23.35;13.25;;;;;;;3.38;88.90;100017.50;1737945;81;21882;-78
2022/02/23 06:30:09;;;;;;;24.20;13.50;;;;;;;3.42;88.58;100024.34;1719184;82;21204;-78
2022/02/23 06:33:22;;;;;;;20.80;12.58;;;;;;;3.45;87.97;100024.08;1749895;80;21235;-79
2022/02/23 06:36:28;;;;;;;25.68;12.95;;;;;;;3.50;87.79;100027.22;1793680;79;21872;-77
2022/02/23 06:39:48;;;;;;;29.48;13.38;;;;;;;3.52;86.78;100031.98;1790477;79;21336;-78
2022/02/23 06:42:57;;;;;;;31.12;14.40;;;;;;;3.57;86.05;100036.48;1790935;79;21177;-79
2022/02/23 06:46:04;;;;;;;27.55;14.53;;;;;;;3.63;86.56;100038.66;1719747;82;22296;-78
2022/02/23 06:49:11;;;;;;;27.70;14.70;;;;;;;3.72;86.03;100045.94;1788655;79;21204;-78
2022/02/23 06:52:21;;;;;;;24.50;14.78;;;;;;;3.79;85.48;100038.96;1787820;79;21892;-79
2022/02/23 06:55:34;;;;;;;24.02;13.65;;;;;;;3.87;86.38;100040.98;1790052;79;21174;-77
2022/02/23 06:58:50;;;;;;;25.53;15.77;;;;;;;3.95;85.34;100040.26;1792658;78;21288;-83
2022/02/23 07:02:04;;;;;;;25.43;15.55;;;;;;;4.01;85.09;100041.08;1795409;79;21312;-82
2022/02/23 07:05:11;;;;;;;29.87;14.60;;;;;;;4.09;84.83;100047.97;1788776;78;21169;-78
2022/02/23 07:08:18;;;;;;;33.83;16.10;;;;;;;4.16;84.90;100061.31;1798660;79;21253;-78
2022/02/23 07:11:26;;;;;;;29.40;14.68;;;;;;;4.24;84.72;100056.05;1789118;79;21303;-77
2022/02/23 07:14:31;;;;;;;28.95;15.60;;;;;;;4.34;84.71;100060.96;1793676;79;21193;-78
2022/02/23 07:17:36;;;;;;;33.95;14.78;;;;;;;4.45;84.40;100067.23;1791070;79;21288;-77
2022/02/23 07:20:44;;;;;;;26.97;14.65;;;;;;;4.54;84.46;100075.34;1722872;82;21375;-77
2022/02/23 07:23:51;;;;;;;28.07;16.23;;;;;;;4.60;83.38;100071.20;1791819;79;22487;-79
2022/02/23 07:26:56;;;;;;;29.23;16.57;;;;;;;4.66;83.00;100072.47;1792780;79;21296;-79
2022/02/23 07:30:01;;;;;;;31.45;16.55;;;;;;;4.71;83.01;100075.13;1790717;79;21269;-79
2022/02/23 07:33:10;;;;;;;32.93;17.73;;;;;;;4.77;84.32;100078.61;1796598;79;21425;-79
2022/02/23 07:36:18;;;;;;;33.55;17.00;;;;;;;4.83;82.55;100080.73;1804922;79;21256;-78
2022/02/23 07:39:23;;;;;;;32.15;18.45;;;;;;;4.88;83.34;100080.30;1787111;79;21173;-77
2022/02/23 07:42:31;;;;;;;36.65;18.75;;;;;;;4.92;84.59;100079.52;1790848;79;21370;-79
2022/02/23 07:45:40;;;;;;;34.63;19.52;;;;;;;4.96;82.66;100084.50;1790125;78;21333;-78
2022/02/23 07:48:46;;;;;;;34.80;18.98;;;;;;;4.99;82.25;100090.14;1773480;79;21347;-79
2022/02/23 07:51:56;;;;;;;40.03;20.30;;;;;;;5.04;82.17;100093.27;1791639;79;21745;-77
2022/02/23 07:55:04;;;;;;;42.58;21.93;;;;;;;5.09;82.00;100092.33;1792003;78;21280;-78
2022/02/23 07:58:11;;;;;;;40.78;20.57;;;;;;;5.16;82.63;100101.56;1787549;79;21185;-77
2022/02/23 08:01:45;;;;;;;39.33;19.95;;;;;;;5.24;82.51;100094.91;1788987;78;21140;-77
2022/02/23 08:05:01;;;;;;;40.10;21.73;;;;;;;5.34;82.80;100093.02;1777969;78;21172;-77
2022/02/23 08:08:07;;;;;;;45.20;23.80;;;;;;;5.46;83.41;100100.97;1735901;81;21609;-78
2022/02/23 08:11:18;;;;;;;40.92;24.12;;;;;;;5.58;82.97;100107.92;1778156;79;21163;-77
2022/02/23 08:14:24;;;;;;;51.45;23.50;;;;;;;5.71;82.72;100107.09;1789476;78;21166;-78
2022/02/23 08:21:04;;;;;;;59.65;26.15;;;;;;;5.97;80.52;100107.76;1795016;79;21509;-78
2022/02/23 08:24:13;;;;;;;45.33;26.02;;;;;;;6.05;80.26;100113.30;1793420;78;21244;-78
2022/02/23 08:27:30;;;;;;;49.85;24.57;;;;;;;6.12;80.26;100113.91;1725848;81;21477;-78
2022/02/23 08:30:42;;;;;;;44.65;23.22;;;;;;;6.20;79.75;100113.62;1794455;79;21815;-81
2022/02/23 08:33:54;;;;;;;45.48;21.10;;;;;;;6.28;79.20;100105.06;1719036;81;21221;-79
2022/02/23 08:37:11;;;;;;;45.20;18.10;;;;;;;6.36;78.30;100103.80;1725035;81;21365;-80
2022/02/23 08:40:19;;;;;;;33.35;15.15;;;;;;;6.43;78.32;100105.89;1741281;81;21325;-80
2022/02/23 08:43:33;;;;;;;23.87;11.48;;;;;;;6.53;78.23;100110.23;1788864;78;21193;-81
2022/02/23 08:46:42;;;;;;;17.80;10.50;;;;;;;6.61;76.54;100110.32;1793046;78;21287;-78
2022/02/23 08:49:50;;;;;;;20.48;9.85;;;;;;;6.66;76.84;100112.06;1787924;79;21362;-79
2022/02/23 08:52:59;;;;;;;20.05;10.45;;;;;;;6.71;75.28;100110.23;1790586;79;21177;-80
2022/02/23 08:56:04;;;;;;;19.00;9.53;;;;;;;6.73;74.86;100112.31;1789329;79;21193;-78
2022/02/23 08:59:10;;;;;;;16.45;9.55;;;;;;;6.78;74.25;100114.56;1787918;79;21218;-77
2022/02/23 09:02:16;;;;;;;18.90;9.10;;;;;;;6.80;74.85;100116.60;1774889;79;21314;-77
2022/02/23 09:05:25;;;;;;;16.82;8.50;;;;;;;6.85;74.97;100112.91;1776464;78;22077;-78
2022/02/23 09:08:42;;;;;;;14.05;7.15;;;;;;;6.89;74.09;100124.67;1736695;79;21142;-78
2022/02/23 09:11:53;;;;;;;12.98;7.25;;;;;;;6.91;74.10;100119.06;1758884;79;21220;-78
2022/02/23 09:15:00;;;;;;;12.85;7.58;;;;;;;6.93;72.13;100118.42;1788575;79;21152;-78
2022/02/23 09:18:06;;;;;;;8.50;5.97;;;;;;;6.91;72.81;100119.06;1793861;79;21327;-78
2022/02/23 09:21:11;;;;;;;13.43;6.92;;;;;;;6.95;71.94;100119.61;1720211;82;21256;-78
2022/02/23 09:24:11;;;;;;;11.43;7.22;;;;;;;7.02;72.34;100122.06;1774179;79;21722;-78
2022/02/23 09:27:25;;;;;;;12.63;7.08;;;;;;;7.10;71.43;100127.55;1789079;79;21315;-78
2022/02/23 09:30:44;;;;;;;10.05;6.45;;;;;;;7.14;70.12;100118.05;1790720;79;21318;-82
2022/02/23 09:33:56;;;;;;;12.10;6.72;;;;;;;7.16;70.89;100124.20;1722821;82;21433;-79
2022/02/23 09:37:09;;;;;;;9.78;5.83;;;;;;;7.20;71.02;100113.36;1799173;78;21193;-79
2022/02/23 09:40:21;;;;;;;10.08;5.87;;;;;;;7.23;71.14;100111.66;1804395;78;21339;-79
2022/02/23 09:43:32;;;;;;;8.43;5.28;;;;;;;7.24;70.93;100111.15;1772426;78;21275;-78
2022/02/23 09:46:43;;;;;;;11.80;6.58;;;;;;;7.29;69.02;100115.61;1789268;78;21748;-79
2022/02/23 09:49:55;;;;;;;11.38;6.17;;;;;;;7.33;68.80;100115.13;1777916;78;21201;-79
2022/02/23 09:53:30;;;;;;;10.60;6.23;;;;;;;7.37;69.48;100112.44;1802848;78;21336;-78
2022/02/23 09:56:45;;;;;;;8.88;5.55;;;;;;;7.45;69.27;100117.59;1803573;78;21495;-77
2022/02/23 10:00:05;;;;;;;12.58;6.42;;;;;;;7.47;68.65;100113.68;1750919;78;21153;-80
2022/02/23 10:03:28;;;;;;;11.00;5.92;;;;;;;7.49;68.42;100112.18;1778631;78;21866;-80
2022/02/23 10:06:49;;;;;;;9.20;6.03;;;;;;;7.53;67.87;100113.53;1766762;78;21213;-79
2022/02/23 10:10:05;;;;;;;9.23;5.28;;;;;;;7.59;66.68;100111.04;1725728;78;21192;-79
2022/02/23 10:13:25;;;;;;;8.48;4.80;;;;;;;7.65;64.60;100125.87;1713180;82;21169;-78
2022/02/23 10:17:06;;;;;;;11.97;4.87;;;;;;;7.65;62.58;100113.62;1756696;79;21172;-81
2022/02/23 10:20:48;;;;;;;13.32;6.53;;;;;;;7.64;62.47;100116.00;1703764;82;21217;-79
2022/02/23 10:24:06;;;;;;;12.23;5.10;;;;;;;7.68;60.97;100114.66;1739743;82;21302;-78
2022/02/23 10:27:22;;;;;;;8.08;4.80;;;;;;;7.72;60.71;100102.44;1737257;80;21298;-78
2022/02/23 10:30:36;;;;;;;7.03;3.80;;;;;;;7.75;56.78;100103.97;1739771;81;21611;-81
2022/02/23 10:33:44;;;;;;;7.40;3.98;;;;;;;7.77;57.67;100101.95;1666386;81;61385;-76
2022/02/23 10:37:11;;;;;;;7.87;4.12;;;;;;;7.79;55.65;100105.34;1707475;82;21283;-77
2022/02/23 10:40:17;;;;;;;7.33;3.90;;;;;;;7.81;56.61;100105.55;1698113;82;21188;-77
2022/02/23 10:43:46;;;;;;;6.15;4.47;;;;;;;7.83;56.27;100104.86;1663285;83;21640;-78
2022/02/23 10:46:50;;;;;;;8.78;5.17;;;;;;;7.84;56.15;100101.11;1707780;82;21551;-78
2022/02/23 10:50:28;;;;;;;9.68;5.08;;;;;;;7.84;56.74;100096.17;1700770;82;22122;-77
2022/02/23 10:53:38;;;;;;;6.78;4.30;;;;;;;7.87;56.85;100092.63;1704294;82;21199;-76
2022/02/23 10:56:46;;;;;;;6.65;4.03;;;;;;;7.90;57.53;100095.03;1703944;82;21355;-85
2022/02/23 10:59:55;;;;;;;5.53;3.08;;;;;;;7.93;55.93;100102.00;1703286;82;21658;-86
2022/02/23 11:03:01;;;;;;;6.70;3.95;;;;;;;7.93;55.99;100102.85;1710206;82;21312;-87
2022/02/23 11:06:08;;;;;;;6.30;3.80;;;;;;;7.98;54.34;100098.78;1710229;82;21319;-87
2022/02/23 11:09:15;;;;;;;7.47;3.37;;;;;;;8.03;54.68;100096.42;1708527;82;21327;-88
2022/02/23 11:12:19;;;;;;;5.55;2.80;;;;;;;8.05;53.72;100097.97;1704219;82;21929;-78
2022/02/23 11:15:33;;;;;;;6.85;3.50;;;;;;;8.10;53.28;100104.29;1706775;82;21300;-87
2022/02/23 11:18:39;;;;;;;6.78;3.70;;;;;;;8.12;54.23;100103.09;1701943;82;21385;-89
2022/02/23 11:21:46;;;;;;;8.05;3.45;;;;;;;8.17;53.09;100101.23;1705047;82;21287;-77
2022/02/23 11:24:52;;;;;;;7.60;3.90;;;;;;;8.22;54.31;100107.03;1704149;82;21404;-77
2022/02/23 11:28:02;;;;;;;6.90;3.65;;;;;;;8.28;53.42;100104.14;1702704;82;21205;-77
2022/02/23 11:31:13;;;;;;;7.20;4.08;;;;;;;8.29;53.30;100103.15;1698293;82;21631;-76
2022/02/23 11:34:21;;;;;;;9.53;3.95;;;;;;;8.32;52.41;100111.82;1699958;82;21849;-77
2022/02/23 11:37:29;;;;;;;6.50;4.00;;;;;;;8.35;51.92;100110.65;1710812;82;21402;-78
2022/02/23 11:40:37;;;;;;;6.10;4.25;;;;;;;8.35;51.80;100106.56;1685423;82;21240;-78
2022/02/23 11:43:46;;;;;;;5.58;3.77;;;;;;;8.34;52.24;100105.71;1711121;82;21808;-77
2022/02/23 11:51:29;;;;;;;7.85;3.80;;;;;;;8.34;53.06;100094.81;1709120;82;22076;-76
2022/02/23 11:59:18;;;;;;;8.50;4.60;;;;;;;8.35;52.10;100096.52;1713209;80;21259;-87
2022/02/23 12:02:30;;;;;;;10.43;4.45;;;;;;;8.33;52.13;100099.92;1709412;82;21288;-86
2022/02/23 12:05:52;;;;;;;7.83;4.15;;;;;;;8.34;51.79;100097.53;1711460;82;21658;-87
2022/02/23 12:08:54;;;;;;;8.28;5.15;;;;;;;8.36;51.83;100094.16;1678106;83;21369;-75
2022/02/23 12:11:59;;;;;;;10.88;6.05;;;;;;;8.34;52.38;100096.17;1701586;81;21536;-84
2022/02/23 12:15:41;;;;;;;9.83;5.65;;;;;;;8.33;52.93;100093.11;1701565;82;21228;-83
2022/02/23 12:18:53;;;;;;;12.47;6.95;;;;;;;8.38;52.40;100094.86;1698903;82;21642;-75
2022/02/23 12:22:00;;;;;;;;;;;;;;;8.39;52.05;100097.06;1706420;82;21195;-74
2022/02/23 12:25:06;;;;;;;18.07;10.18;;;;;;;8.39;51.49;100095.19;1708813;82;20461;-74
2022/02/23 12:28:13;;;;;;;16.42;7.83;;;;;;;8.38;52.79;100093.50;1709277;82;21330;-87
2022/02/23 12:31:21;;;;;;;18.05;9.90;;;;;;;8.42;52.40;100094.87;1706300;82;21295;-86
2022/02/23 12:34:37;;;;;;;26.90;12.80;;;;;;;8.40;52.30;100088.72;1715356;82;21611;-85
2022/02/23 12:37:43;;;;;;;22.60;12.28;;;;;;;8.41;52.37;100097.73;1690963;82;21364;-86
2022/02/23 12:40:52;;;;;;;23.98;12.47;;;;;;;8.42;52.36;100102.16;1686109;84;22091;-87
2022/02/23 12:44:17;;;;;;;22.35;12.05;;;;;;;8.42;52.18;100103.05;1694895;83;22280;-87
2022/02/23 12:47:23;;;;;;;26.40;13.60;;;;;;;8.40;51.57;100099.61;1711550;82;21303;-77
2022/02/23 12:50:35;;;;;;;17.10;10.48;;;;;;;8.39;51.94;100104.73;1680293;83;21179;-87
2022/02/23 12:53:49;;;;;;;26.40;10.68;;;;;;;8.39;51.74;100107.97;1711820;83;21297;-86
2022/02/23 12:56:58;;;;;;;15.15;8.73;;;;;;;8.38;51.56;100098.95;1687916;83;21374;-87
2022/02/23 13:00:06;;;;;;;20.15;9.55;;;;;;;8.39;50.76;100110.18;1712960;83;21174;-87
2022/02/23 13:03:15;;;;;;;16.57;9.20;;;;;;;8.38;51.07;100109.00;1712242;82;21238;-86
2022/02/23 13:06:20;;;;;;;8.03;5.00;;;;;;;8.37;50.97;100109.48;1701558;83;21276;-86
2022/02/23 13:09:30;;;;;;;6.15;4.28;;;;;;;8.37;51.46;100104.55;1702441;84;21308;-87
2022/02/23 13:12:38;;;;;;;7.92;4.00;;;;;;;8.37;50.76;100121.74;1699989;84;21311;-87
2022/02/23 13:15:45;;;;;;;6.62;4.33;;;;;;;8.35;49.46;100119.67;1708976;83;21321;-88
2022/02/23 13:18:51;;;;;;;6.30;3.62;;;;;;;8.35;49.89;100119.67;1702179;82;21819;-88
2022/02/23 13:22:01;;;;;;;6.17;3.70;;;;;;;8.33;49.98;100120.36;1721422;82;21177;-87
2022/02/23 13:25:06;;;;;;;5.33;3.30;;;;;;;8.29;50.12;100123.08;1703449;83;21838;-87
2022/02/23 13:28:14;;;;;;;5.78;3.50;;;;;;;8.30;50.24;100125.29;1696818;83;21325;-87
2022/02/23 13:31:20;;;;;;;7.67;4.03;;;;;;;8.30;49.89;100121.20;1710598;82;21283;-87
2022/02/23 13:34:32;;;;;;;5.62;3.58;;;;;;;8.30;49.60;100130.73;1702609;83;21406;-77
2022/02/23 13:37:41;;;;;;;8.03;3.15;;;;;;;8.26;50.43;100129.36;1718927;81;21287;-77
2022/02/23 13:40:50;;;;;;;6.37;2.95;;;;;;;8.25;50.48;100131.75;1720546;81;21686;-87
2022/02/23 13:43:54;;;;;;;6.33;3.52;;;;;;;8.19;50.62;100135.48;1715378;82;21903;-76
2022/02/23 13:47:07;;;;;;;7.83;3.60;;;;;;;8.16;50.61;100143.13;1718178;82;21790;-77
2022/02/23 13:50:27;;;;;;;7.37;3.27;;;;;;;8.14;50.71;100139.21;1712430;82;22233;-78
2022/02/23 13:53:34;;;;;;;6.72;3.90;;;;;;;8.13;50.63;100144.29;1684533;83;21181;-78
2022/02/23 13:56:40;;;;;;;8.98;3.42;;;;;;;8.09;50.68;100147.50;1705360;82;21175;-78
2022/02/23 13:59:46;;;;;;;5.50;3.25;;;;;;;8.07;51.48;100145.47;1718401;82;21528;-76
2022/02/23 14:03:19;;;;;;;4.95;3.12;;;;;;;8.06;50.92;100141.05;1715116;82;21642;-76
2022/02/23 14:06:25;;;;;;;6.20;3.40;;;;;;;8.06;50.63;100144.62;1665570;83;21262;-76
2022/02/23 14:09:30;;;;;;;5.45;3.12;;;;;;;8.05;50.14;100147.00;1690236;83;21181;-76
2022/02/23 14:12:38;;;;;;;6.10;3.22;;;;;;;8.04;50.56;100144.42;1669699;83;21294;-76
2022/02/23 14:15:50;;;;;;;6.72;3.90;;;;;;;8.02;51.02;100148.69;1686128;83;21314;-76
2022/02/23 14:19:00;;;;;;;10.55;3.87;;;;;;;8.00;50.54;100160.75;1688663;84;21295;-76
2022/02/23 14:22:07;;;;;;;7.37;3.17;;;;;;;7.98;50.97;100161.43;1656319;86;21317;-76
2022/02/23 14:25:15;;;;;;;4.47;3.05;;;;;;;7.94;50.97;100163.11;1688636;85;21766;-76
2022/02/23 14:28:37;;;;;;;5.10;3.42;;;;;;;7.92;51.10;100162.43;1658315;84;21327;-76
2022/02/23 14:31:54;;;;;;;6.42;3.37;;;;;;;7.90;51.55;100167.20;1670483;83;21860;-76
2022/02/23 14:35:08;;;;;;;6.58;3.50;;;;;;;7.87;51.83;100169.39;1686374;84;21291;-85
2022/02/23 14:38:15;;;;;;;9.70;3.20;;;;;;;7.84;52.79;100168.34;1660244;85;21857;-84
2022/02/23 14:41:20;;;;;;;6.50;3.67;;;;;;;7.79;53.12;100176.14;1665512;85;21264;-86
2022/02/23 14:44:26;;;;;;;5.08;3.27;;;;;;;7.73;53.53;100168.63;1691165;83;21372;-84
2022/02/23 14:47:32;;;;;;;6.35;3.70;;;;;;;7.67;54.19;100172.86;1693102;83;21345;-85
2022/02/23 14:50:37;;;;;;;7.75;3.90;;;;;;;7.61;55.06;100181.13;1658965;85;21311;-86